createdAt,value
2019-02-24T00:00:41.468Z,66.98
2019-02-24T00:03:10.077Z,67.37
2019-02-24T00:05:38.740Z,67.44
2019-02-24T00:08:07.386Z,66.57
2019-02-24T00:10:36.104Z,66.56
2019-02-24T00:13:04.734Z,67.08
2019-02-24T00:15:33.252Z,67.69
2019-02-24T00:18:01.722Z,67.47
2019-02-24T00:20:30.202Z,67.10
2019-02-24T00:22:58.686Z,66.73
2019-02-24T00:25:27.218Z,67.39
2019-02-24T00:27:55.700Z,67.67
2019-02-24T00:30:24.159Z,67.15
2019-02-24T00:32:52.770Z,67.69
2019-02-24T00:35:21.510Z,68.08
2019-02-24T00:37:50.006Z,68.09
2019-02-24T00:40:18.497Z,68.48
2019-02-24T00:42:46.957Z,68.11
2019-02-24T00:45:15.486Z,68.10
2019-02-24T00:47:43.980Z,67.42
2019-02-24T00:50:12.567Z,67.29
2019-02-24T00:52:41.307Z,67.54
2019-02-24T00:55:10.020Z,66.65
2019-02-24T00:57:38.622Z,66.93
2019-02-24T01:00:10.464Z,67.11
2019-02-24T01:02:39.017Z,66.79
2019-02-24T01:05:08.861Z,66.75
2019-02-24T01:07:37.336Z,66.95
2019-02-24T01:10:08.657Z,66.67
2019-02-24T01:12:37.142Z,66.67
2019-02-24T01:15:08.709Z,67.16
2019-02-24T01:17:37.173Z,67.11
2019-02-24T01:20:08.393Z,66.91
2019-02-24T01:22:37.132Z,66.84
2019-02-24T01:25:06.026Z,66.77
2019-02-24T01:27:34.475Z,66.74
2019-02-24T01:30:03.130Z,66.35
2019-02-24T01:32:31.587Z,66.42
2019-02-24T01:35:00.092Z,66.01
2019-02-24T01:37:28.941Z,66.30
2019-02-24T01:39:57.393Z,65.86
2019-02-24T01:42:25.980Z,65.96
2019-02-24T01:44:54.526Z,65.92
2019-02-24T01:47:23.373Z,65.69
2019-02-24T01:49:52.059Z,65.54
2019-02-24T01:52:20.892Z,65.44
2019-02-24T01:54:49.428Z,65.23
2019-02-24T01:57:17.913Z,65.12
2019-02-24T01:59:46.618Z,64.86
2019-02-24T02:02:15.148Z,64.84
2019-02-24T02:04:43.654Z,64.75
2019-02-24T02:07:12.142Z,64.75
2019-02-24T02:09:40.615Z,64.59
2019-02-24T02:12:09.215Z,64.45
2019-02-24T02:14:37.721Z,64.25
2019-02-24T02:17:06.168Z,64.26
2019-02-24T02:19:34.648Z,64.04
2019-02-24T02:22:03.180Z,64.12
2019-02-24T02:24:31.671Z,64.04
2019-02-24T02:27:00.140Z,63.90
2019-02-24T02:29:28.634Z,63.69
2019-02-24T02:31:57.101Z,63.58
2019-02-24T02:34:25.590Z,63.44
2019-02-24T02:36:54.075Z,63.59
2019-02-24T02:39:22.812Z,63.22
2019-02-24T02:41:51.232Z,63.16
2019-02-24T02:44:19.730Z,63.45
2019-02-24T02:46:48.664Z,63.48
2019-02-24T02:49:17.153Z,63.64
2019-02-24T02:51:45.604Z,63.54
2019-02-24T02:54:14.082Z,63.56
2019-02-24T02:56:42.635Z,63.67
2019-02-24T02:59:11.119Z,63.84
2019-02-24T03:01:39.764Z,63.86
2019-02-24T03:04:08.351Z,63.94
2019-02-24T03:06:41.504Z,64.07
2019-02-24T03:09:10.895Z,64.32
2019-02-24T03:11:39.450Z,64.31
2019-02-24T03:14:07.934Z,64.48
2019-02-24T03:16:36.409Z,64.65
2019-02-24T03:19:04.894Z,64.72
2019-02-24T03:21:33.403Z,64.89
2019-02-24T03:24:01.906Z,64.92
2019-02-24T03:26:30.370Z,65.49
2019-02-24T03:29:04.143Z,65.15
2019-02-24T03:31:29.118Z,65.56
2019-02-24T03:33:57.598Z,66.01
2019-02-24T03:36:26.161Z,65.73
2019-02-24T03:38:54.643Z,65.81
2019-02-24T03:41:23.250Z,65.81
2019-02-24T03:43:51.786Z,65.65
2019-02-24T03:46:20.334Z,65.80
2019-02-24T03:48:48.813Z,65.75
2019-02-24T03:51:17.296Z,65.88
2019-02-24T03:53:46.021Z,65.73
2019-02-24T03:56:14.617Z,65.86
2019-02-24T03:58:43.253Z,65.58
2019-02-24T04:01:11.845Z,65.59
2019-02-24T04:03:40.493Z,65.42
2019-02-24T04:06:09.029Z,65.50
2019-02-24T04:08:37.484Z,65.14
2019-02-24T04:11:05.960Z,64.88
2019-02-24T04:13:36.023Z,64.87
2019-02-24T04:16:04.561Z,64.74
2019-02-24T04:18:33.050Z,64.48
2019-02-24T04:21:02.554Z,64.45
2019-02-24T04:23:31.075Z,65.08
2019-02-24T04:25:59.641Z,64.75
2019-02-24T04:28:28.232Z,64.45
2019-02-24T04:30:56.782Z,64.67
2019-02-24T04:33:25.265Z,65.10
2019-02-24T04:35:53.739Z,65.11
2019-02-24T04:38:22.226Z,65.03
2019-02-24T04:40:50.713Z,64.73
2019-02-24T04:43:19.181Z,65.02
2019-02-24T04:45:47.899Z,65.43
2019-02-24T04:48:16.386Z,65.43
2019-02-24T04:50:44.930Z,65.37
2019-02-24T04:53:13.412Z,65.50
2019-02-24T04:55:41.907Z,65.60
2019-02-24T04:58:10.619Z,65.65
2019-02-24T05:00:39.118Z,65.69
2019-02-24T05:03:07.573Z,66.30
2019-02-24T05:05:36.031Z,66.19
2019-02-24T05:08:04.512Z,66.21
2019-02-24T05:10:32.981Z,66.20
2019-02-24T05:13:01.465Z,66.22
2019-02-24T05:15:29.958Z,66.44
2019-02-24T05:17:58.428Z,66.60
2019-02-24T05:20:26.919Z,66.71
2019-02-24T05:22:55.386Z,66.72
2019-02-24T05:25:23.870Z,66.87
2019-02-24T05:27:52.325Z,66.99
2019-02-24T05:30:20.867Z,67.01
2019-02-24T05:32:49.422Z,66.92
2019-02-24T05:35:17.892Z,67.08
2019-02-24T05:37:46.399Z,67.02
2019-02-24T05:40:14.932Z,67.50
2019-02-24T05:42:43.449Z,67.46
2019-02-24T05:45:12.088Z,67.50
2019-02-24T05:47:40.613Z,67.59
2019-02-24T05:50:09.251Z,67.57
2019-02-24T05:52:37.733Z,67.64
2019-02-24T05:55:06.979Z,67.26
2019-02-24T05:57:35.496Z,67.32
2019-02-24T06:00:04.492Z,67.10
2019-02-24T06:02:32.955Z,66.86
2019-02-24T06:05:01.523Z,66.92
2019-02-24T06:07:29.989Z,66.79
2019-02-24T06:09:58.483Z,66.55
2019-02-24T06:12:26.954Z,66.55
2019-02-24T06:14:55.433Z,66.88
2019-02-24T06:17:24.055Z,66.79
2019-02-24T06:19:52.530Z,66.63
2019-02-24T06:22:21.017Z,66.72
2019-02-24T06:24:49.467Z,66.71
2019-02-24T06:27:17.998Z,66.82
2019-02-24T06:29:46.627Z,66.93
2019-02-24T06:32:15.088Z,66.97
2019-02-24T06:34:43.589Z,66.99
2019-02-24T06:37:12.067Z,67.20
2019-02-24T06:39:40.684Z,66.98
2019-02-24T06:42:09.213Z,66.85
2019-02-24T06:44:37.758Z,66.94
2019-02-24T06:47:06.222Z,66.45
2019-02-24T06:49:34.712Z,66.29
2019-02-24T06:52:03.172Z,66.31
2019-02-24T06:54:31.637Z,66.01
2019-02-24T06:57:00.131Z,66.21
2019-02-24T06:59:28.677Z,65.98
2019-02-24T07:01:57.321Z,65.61
2019-02-24T07:04:25.791Z,65.44
2019-02-24T07:06:54.255Z,65.22
2019-02-24T07:09:22.734Z,65.19
2019-02-24T07:11:51.426Z,65.35
2019-02-24T07:14:20.003Z,65.25
2019-02-24T07:16:48.525Z,64.88
2019-02-24T07:19:16.986Z,64.67
2019-02-24T07:21:45.479Z,64.66
2019-02-24T07:24:13.950Z,64.24
2019-02-24T07:26:42.510Z,63.95
2019-02-24T07:29:11.093Z,63.26
2019-02-24T07:31:39.613Z,63.09
2019-02-24T07:34:08.091Z,62.53
2019-02-24T07:36:36.540Z,61.88
2019-02-24T07:39:05.462Z,60.84
2019-02-24T07:41:33.915Z,59.41
2019-02-24T07:44:02.769Z,57.96
2019-02-24T07:46:31.341Z,56.65
2019-02-24T07:48:59.867Z,56.11
2019-02-24T07:51:28.346Z,55.97
2019-02-24T07:53:56.935Z,55.43
2019-02-24T07:56:25.570Z,54.97
2019-02-24T07:58:54.096Z,55.45
2019-02-24T08:01:22.572Z,56.03
2019-02-24T08:03:51.079Z,54.63
2019-02-24T08:06:19.610Z,53.52
2019-02-24T08:08:48.246Z,50.89
2019-02-24T08:11:16.701Z,48.87
2019-02-24T08:13:45.458Z,47.23
2019-02-24T08:16:13.968Z,45.47
2019-02-24T08:18:49.223Z,44.59
2019-02-24T08:21:12.752Z,42.73
2019-02-24T08:23:41.189Z,41.15
2019-02-24T08:26:09.721Z,40.17
2019-02-24T08:28:38.333Z,39.24
2019-02-24T08:31:06.861Z,38.21
2019-02-24T08:33:35.424Z,37.31
2019-02-24T08:36:03.985Z,36.38
2019-02-24T08:38:34.590Z,35.19
2019-02-24T08:41:03.599Z,34.41
2019-02-24T08:43:32.096Z,34.80
2019-02-24T08:46:00.563Z,34.14
2019-02-24T08:48:29.060Z,33.44
2019-02-24T08:50:57.514Z,33.77
2019-02-24T08:53:26.008Z,33.29
2019-02-24T08:55:54.534Z,33.70
2019-02-24T08:58:23.017Z,33.28
2019-02-24T09:00:51.529Z,33.04
2019-02-24T09:03:20.344Z,32.57
2019-02-24T09:05:48.859Z,32.96
2019-02-24T09:08:17.570Z,32.77
2019-02-24T09:10:46.141Z,32.03
2019-02-24T09:13:14.616Z,32.15
2019-02-24T09:15:43.076Z,30.61
2019-02-24T09:18:11.622Z,30.35
2019-02-24T09:20:40.276Z,29.68
2019-02-24T09:23:08.843Z,29.61
2019-02-24T09:25:37.373Z,29.37
2019-02-24T09:28:05.980Z,29.30
2019-02-24T09:30:34.538Z,28.87
2019-02-24T09:33:03.126Z,28.36
2019-02-24T09:35:31.603Z,28.25
2019-02-24T09:38:00.088Z,28.32
2019-02-24T09:40:28.726Z,28.35
2019-02-24T09:42:57.481Z,27.82
2019-02-24T09:45:26.109Z,28.77
2019-02-24T09:47:54.632Z,28.03
2019-02-24T09:50:23.191Z,29.41
2019-02-24T09:52:51.645Z,29.16
2019-02-24T09:55:20.133Z,28.78
2019-02-24T09:57:48.608Z,28.72
2019-02-24T10:00:17.638Z,29.00
2019-02-24T10:02:46.167Z,28.18
2019-02-24T10:05:14.635Z,27.30
2019-02-24T10:07:43.130Z,27.60
2019-02-24T10:10:12.937Z,26.93
2019-02-24T10:12:41.580Z,25.79
2019-02-24T10:15:14.566Z,25.68
2019-02-24T10:17:43.216Z,25.49
2019-02-24T10:20:12.904Z,25.28
2019-02-24T10:22:41.367Z,25.45
2019-02-24T10:25:10.493Z,24.90
2019-02-24T10:27:39.119Z,23.81
2019-02-24T10:30:13.655Z,23.76
2019-02-24T10:32:41.700Z,22.51
2019-02-24T10:35:10.405Z,20.57
2019-02-24T10:37:38.910Z,23.27
2019-02-24T10:40:12.394Z,22.18
2019-02-24T10:42:41.175Z,22.19
2019-02-24T10:45:15.737Z,22.96
2019-02-24T10:47:44.422Z,22.22
2019-02-24T10:50:15.139Z,21.34
2019-02-24T10:52:43.701Z,21.83
2019-02-24T10:55:12.484Z,21.91
2019-02-24T10:57:41.120Z,21.58
2019-02-24T11:00:14.593Z,21.52
2019-02-24T11:02:43.212Z,22.04
2019-02-24T11:05:11.945Z,22.72
2019-02-24T11:07:40.429Z,21.95
2019-02-24T11:10:10.069Z,22.41
2019-02-24T11:12:38.670Z,22.85
2019-02-24T11:15:09.479Z,23.14
2019-02-24T11:17:38.249Z,22.27
2019-02-24T11:20:09.884Z,21.70
2019-02-24T11:22:38.473Z,22.29
2019-02-24T11:25:08.584Z,21.98
2019-02-24T11:27:37.181Z,21.12
2019-02-24T11:30:08.623Z,20.53
2019-02-24T11:32:37.168Z,21.32
2019-02-24T11:35:10.464Z,21.21
2019-02-24T11:37:39.112Z,21.53
2019-02-24T11:40:10.633Z,22.51
2019-02-24T11:42:39.089Z,22.33
2019-02-24T11:45:09.222Z,22.04
2019-02-24T11:47:37.852Z,21.46
2019-02-24T11:50:09.092Z,21.37
2019-02-24T11:52:37.624Z,21.30
2019-02-24T11:55:07.623Z,19.98
2019-02-24T11:57:36.171Z,19.87
2019-02-24T12:00:06.982Z,19.91
2019-02-24T12:02:35.626Z,19.78
2019-02-24T12:05:05.745Z,19.65
2019-02-24T12:07:34.236Z,20.19
2019-02-24T12:10:02.786Z,20.03
2019-02-24T12:12:31.258Z,20.29
2019-02-24T12:14:59.813Z,21.01
2019-02-24T12:17:28.426Z,20.24
2019-02-24T12:19:56.979Z,20.44
2019-02-24T12:22:25.538Z,19.64
2019-02-24T12:24:54.088Z,19.42
2019-02-24T12:27:22.564Z,19.42
2019-02-24T12:29:51.151Z,19.27
2019-02-24T12:32:19.597Z,19.75
2019-02-24T12:34:48.108Z,19.51
2019-02-24T12:37:17.491Z,19.27
2019-02-24T12:39:46.264Z,19.44
2019-02-24T12:42:14.741Z,19.42
2019-02-24T12:44:43.283Z,19.76
2019-02-24T12:47:11.727Z,20.15
2019-02-24T12:49:40.291Z,19.72
2019-02-24T12:52:08.902Z,19.81
2019-02-24T12:54:37.461Z,19.28
2019-02-24T12:57:05.985Z,19.62
2019-02-24T12:59:34.557Z,19.19
2019-02-24T13:02:05.743Z,19.56
2019-02-24T13:04:33.429Z,18.64
2019-02-24T13:07:01.948Z,18.36
2019-02-24T13:09:30.443Z,18.65
2019-02-24T13:11:59.030Z,18.13
2019-02-24T13:14:27.756Z,17.95
2019-02-24T13:16:56.824Z,17.81
2019-02-24T13:19:25.310Z,18.45
2019-02-24T13:21:53.957Z,18.13
2019-02-24T13:24:22.619Z,18.04
2019-02-24T13:26:51.299Z,17.52
2019-02-24T13:29:20.051Z,17.70
2019-02-24T13:31:48.661Z,18.04
2019-02-24T13:34:17.204Z,18.02
2019-02-24T13:36:45.663Z,17.78
2019-02-24T13:39:14.264Z,17.62
2019-02-24T13:41:43.032Z,17.59
2019-02-24T13:44:11.632Z,17.47
2019-02-24T13:46:40.138Z,18.13
2019-02-24T13:49:08.683Z,17.94
2019-02-24T13:51:37.185Z,18.41
2019-02-24T13:54:05.781Z,18.49
2019-02-24T13:56:34.223Z,18.42
2019-02-24T13:59:02.782Z,18.98
2019-02-24T14:01:31.249Z,18.73
2019-02-24T14:03:59.790Z,18.85
2019-02-24T14:06:28.347Z,19.50
2019-02-24T14:08:56.866Z,20.38
2019-02-24T14:11:25.431Z,20.38
2019-02-24T14:13:53.997Z,19.87
2019-02-24T14:16:22.445Z,21.24
2019-02-24T14:18:50.925Z,21.41
2019-02-24T14:21:19.644Z,21.94
2019-02-24T14:23:48.158Z,21.99
2019-02-24T14:26:16.736Z,21.65
2019-02-24T14:28:45.263Z,21.67
2019-02-24T14:31:13.713Z,21.93
2019-02-24T14:33:42.247Z,21.87
2019-02-24T14:36:10.778Z,22.32
2019-02-24T14:38:39.396Z,22.54
2019-02-24T14:41:08.959Z,22.85
2019-02-24T14:43:37.709Z,22.46
2019-02-24T14:46:06.244Z,22.60
2019-02-24T14:48:34.700Z,22.88
2019-02-24T14:51:04.353Z,22.76
2019-02-24T14:53:34.136Z,22.49
2019-02-24T14:56:02.689Z,22.68
2019-02-24T14:58:31.159Z,22.59
2019-02-24T15:01:00.735Z,22.04
2019-02-24T15:03:29.379Z,21.66
2019-02-24T15:05:57.972Z,21.57
2019-02-24T15:08:26.789Z,21.67
2019-02-24T15:10:55.403Z,22.19
2019-02-24T15:13:24.160Z,22.04
2019-02-24T15:15:52.682Z,21.98
2019-02-24T15:18:21.180Z,22.02
2019-02-24T15:20:49.769Z,22.66
2019-02-24T15:23:18.516Z,22.28
2019-02-24T15:25:47.153Z,22.64
2019-02-24T15:28:15.663Z,23.30
2019-02-24T15:30:44.272Z,23.31
2019-02-24T15:33:12.862Z,23.53
2019-02-24T15:35:41.432Z,24.05
2019-02-24T15:38:09.990Z,23.73
2019-02-24T15:40:38.586Z,24.08
2019-02-24T15:43:07.159Z,23.83
2019-02-24T15:45:35.791Z,23.85
2019-02-24T15:48:04.392Z,24.42
2019-02-24T15:50:32.941Z,24.28
2019-02-24T15:53:01.493Z,24.44
2019-02-24T15:55:30.027Z,24.26
2019-02-24T15:57:58.697Z,24.80
2019-02-24T16:00:27.296Z,24.89
2019-02-24T16:03:01.531Z,25.18
2019-02-24T16:05:26.417Z,25.41
2019-02-24T16:07:54.911Z,25.06
2019-02-24T16:10:23.727Z,25.83
2019-02-24T16:12:52.337Z,25.48
2019-02-24T16:15:23.477Z,25.63
2019-02-24T16:17:52.068Z,26.18
2019-02-24T16:20:23.183Z,26.20
2019-02-24T16:22:51.767Z,26.56
2019-02-24T16:25:20.488Z,27.02
2019-02-24T16:27:49.037Z,28.19
2019-02-24T16:30:17.932Z,28.10
2019-02-24T16:32:46.508Z,28.25
2019-02-24T16:35:16.607Z,29.54
2019-02-24T16:37:45.210Z,29.50
2019-02-24T16:40:19.602Z,29.39
2019-02-24T16:42:48.123Z,30.14
2019-02-24T16:45:17.099Z,31.06
2019-02-24T16:47:45.768Z,31.57
2019-02-24T16:50:18.542Z,31.57
2019-02-24T16:52:47.088Z,31.79
2019-02-24T16:55:16.481Z,31.92
2019-02-24T16:57:45.096Z,32.69
2019-02-24T17:00:27.875Z,33.07
2019-02-24T17:02:57.956Z,32.58
2019-02-24T17:05:26.863Z,33.81
2019-02-24T17:07:55.317Z,32.91
2019-02-24T17:10:28.363Z,33.71
2019-02-24T17:12:57.421Z,33.64
2019-02-24T17:15:26.189Z,34.21
2019-02-24T17:17:54.846Z,34.33
2019-02-24T17:20:24.840Z,34.92
2019-02-24T17:22:53.363Z,35.42
2019-02-24T17:25:21.983Z,36.06
2019-02-24T17:27:50.514Z,36.20
2019-02-24T17:30:19.145Z,37.02
2019-02-24T17:32:47.692Z,36.08
2019-02-24T17:35:16.214Z,36.87
2019-02-24T17:37:44.847Z,36.78
2019-02-24T17:40:19.630Z,36.87
2019-02-24T17:42:48.441Z,36.60
2019-02-24T17:45:17.056Z,37.15
2019-02-24T17:47:45.683Z,37.09
2019-02-24T17:50:15.677Z,37.88
2019-02-24T17:52:44.367Z,37.47
2019-02-24T17:55:14.479Z,37.19
2019-02-24T17:57:43.096Z,37.70
2019-02-24T18:00:29.998Z,37.86
2019-02-24T18:02:58.661Z,37.38
2019-02-24T18:05:27.277Z,38.35
2019-02-24T18:07:56.045Z,37.56
2019-02-24T18:10:24.673Z,38.76
2019-02-24T18:12:53.202Z,38.39
2019-02-24T18:15:21.848Z,37.95
2019-02-24T18:17:50.325Z,37.91
2019-02-24T18:20:20.660Z,38.36
2019-02-24T18:22:49.403Z,38.03
2019-02-24T18:25:17.893Z,39.19
2019-02-24T18:27:46.440Z,38.77
2019-02-24T18:30:31.066Z,38.92
2019-02-24T18:32:59.867Z,38.66
2019-02-24T18:35:28.496Z,38.71
2019-02-24T18:37:57.266Z,38.72
2019-02-24T18:40:25.800Z,38.06
2019-02-24T18:43:00.139Z,37.86
2019-02-24T18:45:24.979Z,38.05
2019-02-24T18:47:53.494Z,37.81
2019-02-24T18:50:22.330Z,37.95
2019-02-24T18:52:50.804Z,38.37
2019-02-24T18:55:19.595Z,39.07
2019-02-24T18:57:48.030Z,38.67
2019-02-24T19:00:18.590Z,38.84
2019-02-24T19:02:47.170Z,39.13
2019-02-24T19:05:15.764Z,38.94
2019-02-24T19:07:44.321Z,39.26
2019-02-24T19:10:17.879Z,39.75
2019-02-24T19:12:46.526Z,40.47
2019-02-24T19:15:23.064Z,41.21
2019-02-24T19:17:51.769Z,41.92
2019-02-24T19:20:21.708Z,41.93
2019-02-24T19:22:50.240Z,42.02
2019-02-24T19:25:18.796Z,42.81
2019-02-24T19:27:47.245Z,42.31
2019-02-24T19:30:17.402Z,42.69
2019-02-24T19:32:46.202Z,42.75
2019-02-24T19:35:16.105Z,42.63
2019-02-24T19:37:45.049Z,43.39
2019-02-24T19:40:18.266Z,43.67
2019-02-24T19:42:46.800Z,43.29
2019-02-24T19:45:17.232Z,43.75
2019-02-24T19:47:45.839Z,43.71
2019-02-24T19:50:16.760Z,43.92
2019-02-24T19:52:45.557Z,43.59
2019-02-24T19:55:15.255Z,44.35
2019-02-24T19:57:44.204Z,44.72
2019-02-24T20:00:18.294Z,44.97
2019-02-24T20:02:46.886Z,45.71
2019-02-24T20:05:15.520Z,45.07
2019-02-24T20:07:44.098Z,45.24
2019-02-24T20:10:30.326Z,44.97
2019-02-24T20:12:58.793Z,45.23
2019-02-24T20:15:27.330Z,45.28
2019-02-24T20:17:55.910Z,45.88
2019-02-24T20:20:24.440Z,45.68
2019-02-24T20:22:53.135Z,46.27
2019-02-24T20:25:23.044Z,46.17
2019-02-24T20:27:51.626Z,45.96
2019-02-24T20:30:31.942Z,46.05
2019-02-24T20:33:00.775Z,46.40
2019-02-24T20:35:29.453Z,46.41
2019-02-24T20:37:57.991Z,46.46
2019-02-24T20:40:26.581Z,46.59
2019-02-24T20:42:55.197Z,47.02
2019-02-24T20:45:24.637Z,47.46
2019-02-24T20:47:53.426Z,47.82
2019-02-24T20:50:27.191Z,47.74
2019-02-24T20:52:56.045Z,47.85
2019-02-24T20:55:24.514Z,47.94
2019-02-24T20:57:53.109Z,48.14
2019-02-24T21:00:30.242Z,48.33
2019-02-24T21:02:58.851Z,48.66
2019-02-24T21:05:27.464Z,48.63
2019-02-24T21:07:56.248Z,48.82
2019-02-24T21:10:24.769Z,48.95
2019-02-24T21:12:53.220Z,49.13
2019-02-24T21:15:21.802Z,49.12
2019-02-24T21:17:50.313Z,49.53
2019-02-24T21:20:26.949Z,49.58
2019-02-24T21:22:55.903Z,49.95
2019-02-24T21:25:24.457Z,49.84
2019-02-24T21:27:53.038Z,50.67
2019-02-24T21:30:22.134Z,49.86
2019-02-24T21:32:50.791Z,49.74
2019-02-24T21:35:19.377Z,50.13
2019-02-24T21:37:48.217Z,50.82
2019-02-24T21:40:18.793Z,50.53
2019-02-24T21:42:47.618Z,50.21
2019-02-24T21:45:21.678Z,50.39
2019-02-24T21:47:49.470Z,50.54
2019-02-24T21:50:18.347Z,50.94
2019-02-24T21:52:47.143Z,50.13
2019-02-24T21:55:15.984Z,49.88
2019-02-24T21:57:44.700Z,50.09
2019-02-24T22:00:21.628Z,50.16
2019-02-24T22:02:50.215Z,50.46
2019-02-24T22:05:18.820Z,50.46
2019-02-24T22:07:47.538Z,50.18
2019-02-24T22:10:16.742Z,50.34
2019-02-24T22:12:45.505Z,50.08
2019-02-24T22:15:21.931Z,49.69
2019-02-24T22:17:50.429Z,49.46
2019-02-24T22:20:19.019Z,49.69
2019-02-24T22:22:47.881Z,49.51
2019-02-24T22:25:16.679Z,49.79
2019-02-24T22:27:45.284Z,49.12
2019-02-24T22:30:16.260Z,48.67
2019-02-24T22:32:44.771Z,48.48
2019-02-24T22:35:13.367Z,47.97
2019-02-24T22:37:42.048Z,47.49
2019-02-24T22:40:16.603Z,47.46
2019-02-24T22:42:46.526Z,46.66
2019-02-24T22:45:20.043Z,46.41
2019-02-24T22:47:48.840Z,45.86
2019-02-24T22:50:17.630Z,45.52
2019-02-24T22:52:46.826Z,44.99
2019-02-24T22:55:16.540Z,44.47
2019-02-24T22:57:45.128Z,44.46
2019-02-24T23:00:54.634Z,44.69
2019-02-24T23:03:31.750Z,44.43
2019-02-24T23:06:00.643Z,43.91
2019-02-24T23:08:29.258Z,44.08
2019-02-24T23:10:57.850Z,44.13
2019-02-24T23:13:26.687Z,44.21
2019-02-24T23:15:55.200Z,44.80
2019-02-24T23:18:23.753Z,44.32
2019-02-24T23:20:52.403Z,44.78
2019-02-24T23:23:20.875Z,44.79
2019-02-24T23:25:49.513Z,44.57
2019-02-24T23:28:18.053Z,45.34
2019-02-24T23:30:46.505Z,45.10
2019-02-24T23:33:14.977Z,45.00
2019-02-24T23:35:43.503Z,45.18
2019-02-24T23:38:12.148Z,45.25
2019-02-24T23:40:40.750Z,45.61
2019-02-24T23:43:09.308Z,45.25
2019-02-24T23:45:38.228Z,45.10
2019-02-24T23:48:06.854Z,45.41
2019-02-24T23:50:35.378Z,45.27
2019-02-24T23:53:04.308Z,45.54
2019-02-24T23:55:32.794Z,45.54
2019-02-24T23:58:01.861Z,45.21
